Time;durP1;ratioP1;P1;durP2;ratioP2;P2;SDS_P1;SDS_P2;PMS_P1;PMS_P2;Temp;Humidity;BMP_temperature;BMP_pressure;BME280_temperature;BME280_humidity;BME280_pressure;Samples;Min_cycle;Max_cycle;Signal;HPM_P1;HPM_P2
2021/09/27 00:00:30;;;;;;;;;;;21.40;69.30;;;;;;5028556;28;20290;-66
2021/09/27 00:02:56;;;;;;;;;;;21.40;69.20;;;;;;5029664;28;19917;-66
2021/09/27 00:05:21;;;;;;;;;;;21.50;69.20;;;;;;5029613;28;19919;-65
2021/09/27 00:07:47;;;;;;;;;;;21.50;69.20;;;;;;5030047;28;19917;-66
2021/09/27 00:10:13;;;;;;;;;;;21.50;69.20;;;;;;5030133;28;19952;-65
2021/09/27 00:12:39;;;;;;;;;;;21.50;69.30;;;;;;5029218;28;21557;-66
2021/09/27 00:15:05;;;;;;;;;;;21.50;69.20;;;;;;5027469;28;20426;-66
2021/09/27 00:17:30;;;;;;;;;;;21.50;69.20;;;;;;5025911;28;19929;-65
2021/09/27 00:19:56;;;;;;;;;;;21.50;69.20;;;;;;5026160;28;20306;-65
2021/09/27 00:22:22;;;;;;;;;;;21.50;69.20;;;;;;5026055;28;19968;-67
2021/09/27 00:24:48;;;;;;;;;;;21.50;69.20;;;;;;5026859;28;20115;-65
2021/09/27 00:27:13;;;;;;;;;;;21.50;69.10;;;;;;5027015;28;19975;-66
2021/09/27 00:29:39;;;;;;;;;;;21.50;69.20;;;;;;5027482;28;19936;-66
2021/09/27 00:32:04;;;;;;;;;;;21.50;69.10;;;;;;5026762;28;19913;-66
2021/09/27 00:34:30;;;;;;;;;;;21.50;69.70;;;;;;5027476;28;19917;-66
2021/09/27 00:36:55;;;;;;;;;;;21.50;69.10;;;;;;5027556;28;20307;-66
2021/09/27 00:39:21;;;;;;;;;;;21.50;69.10;;;;;;5026982;28;19913;-66
2021/09/27 00:41:46;;;;;;;;;;;21.50;69.10;;;;;;5027523;28;19923;-66
2021/09/27 00:44:12;;;;;;;;;;;21.50;69.00;;;;;;5026969;28;19944;-66
2021/09/27 00:46:37;;;;;;;;;;;21.50;69.00;;;;;;5022433;28;19917;-66
2021/09/27 00:49:03;;;;;;;;;;;21.50;69.10;;;;;;5026856;28;19917;-66
2021/09/27 00:51:29;;;;;;;;;;;21.50;69.10;;;;;;5027091;28;20447;-65
2021/09/27 00:53:56;;;;;;;;;;;21.50;69.00;;;;;;5026466;28;19913;-66
2021/09/27 00:56:25;;;;;;;;;;;21.50;69.00;;;;;;5025610;28;19921;-66
2021/09/27 00:58:51;;;;;;;;;;;21.50;69.10;;;;;;5025458;28;20402;-66
2021/09/27 01:01:16;;;;;;;;;;;21.50;69.10;;;;;;5025173;28;19918;-66
2021/09/27 01:03:41;;;;;;;;;;;21.50;69.10;;;;;;5026780;28;19917;-66
2021/09/27 01:06:26;;;;;;;;;;;21.50;69.00;;;;;;5027265;28;19923;-66
2021/09/27 01:08:51;;;;;;;;;;;21.50;69.00;;;;;;5022520;28;19920;-66
2021/09/27 01:11:32;;;;;;;;;;;21.50;69.00;;;;;;5041452;28;20085;-66
2021/09/27 01:14:01;;;;;;;;;;;21.50;69.00;;;;;;5025980;28;19921;-65
2021/09/27 01:16:33;;;;;;;;;;;21.50;68.90;;;;;;5026238;28;20555;-65
2021/09/27 01:19:05;;;;;;;;;;;21.50;69.00;;;;;;5026236;28;19925;-66
2021/09/27 01:21:40;;;;;;;;;;;21.50;69.00;;;;;;5025403;28;19921;-66
2021/09/27 01:24:08;;;;;;;;;;;21.50;69.60;;;;;;5025390;28;20346;-66
2021/09/27 01:26:39;;;;;;;;;;;21.60;69.10;;;;;;5025790;28;19921;-66
2021/09/27 01:29:23;;;;;;;;;;;21.50;69.00;;;;;;5024383;28;19922;-65
2021/09/27 01:32:11;;;;;;;;;;;21.50;69.10;;;;;;5025341;28;20012;-67
2021/09/27 01:34:47;;;;;;;;;;;21.50;69.10;;;;;;5025009;28;19917;-67
2021/09/27 01:37:15;;;;;;;;;;;21.50;69.00;;;;;;5019837;28;19917;-67
2021/09/27 01:39:57;;;;;;;;;;;21.50;69.00;;;;;;5024830;28;20135;-67
2021/09/27 01:42:32;;;;;;;;;;;21.50;69.10;;;;;;5024570;28;19925;-65
2021/09/27 01:45:02;;;;;;;;;;;21.50;69.10;;;;;;5020393;28;19959;-67
2021/09/27 01:47:32;;;;;;;;;;;21.50;69.10;;;;;;5024283;28;20008;-66
2021/09/27 01:50:01;;;;;;;;;;;21.50;69.10;;;;;;5025111;28;19921;-66
2021/09/27 01:52:28;;;;;;;;;;;21.60;69.20;;;;;;5024668;28;19914;-66
2021/09/27 01:54:54;;;;;;;;;;;21.50;69.20;;;;;;5024321;28;19914;-67
2021/09/27 01:57:26;;;;;;;;;;;21.50;69.10;;;;;;5024591;28;19914;-66
2021/09/27 01:59:58;;;;;;;;;;;21.50;69.20;;;;;;5021820;28;20372;-66
2021/09/27 02:02:29;;;;;;;;;;;21.50;69.10;;;;;;5025144;28;19941;-67
2021/09/27 02:05:00;;;;;;;;;;;21.60;69.20;;;;;;5021048;28;19913;-66
2021/09/27 02:07:27;;;;;;;;;;;21.60;69.20;;;;;;5025358;28;19917;-66
2021/09/27 02:09:57;;;;;;;;;;;21.50;69.20;;;;;;5024324;28;20268;-66
2021/09/27 02:12:25;;;;;;;;;;;21.60;69.20;;;;;;5024390;28;19948;-66
2021/09/27 02:14:50;;;;;;;;;;;21.50;69.10;;;;;;5024876;28;19913;-66
2021/09/27 02:17:19;;;;;;;;;;;21.60;69.20;;;;;;5026025;28;19929;-66
2021/09/27 02:19:52;;;;;;;;;;;21.60;69.20;;;;;;5024420;28;19931;-66
2021/09/27 02:22:21;;;;;;;;;;;21.50;69.10;;;;;;5024889;28;20392;-64
2021/09/27 02:24:49;;;;;;;;;;;21.60;69.20;;;;;;5026663;28;20060;-65
2021/09/27 02:27:15;;;;;;;;;;;21.50;69.10;;;;;;5026901;28;19932;-66
2021/09/27 02:29:41;;;;;;;;;;;21.50;69.10;;;;;;5024410;28;20003;-66
2021/09/27 02:32:12;;;;;;;;;;;21.50;69.10;;;;;;5023512;28;19917;-66
2021/09/27 02:34:57;;;;;;;;;;;21.60;69.20;;;;;;5023322;28;19925;-67
2021/09/27 02:37:28;;;;;;;;;;;21.60;69.40;;;;;;5017810;28;19921;-66
2021/09/27 02:39:54;;;;;;;;;;;21.60;69.10;;;;;;5022308;28;19944;-66
2021/09/27 02:42:29;;;;;;;;;;;21.50;69.10;;;;;;5017716;28;20527;-66
2021/09/27 02:44:55;;;;;;;;;;;21.60;69.10;;;;;;5027729;28;19917;-66
2021/09/27 02:47:23;;;;;;;;;;;21.60;69.20;;;;;;5026856;28;20629;-67
2021/09/27 02:49:49;;;;;;;;;;;21.60;69.10;;;;;;5026995;28;19924;-67
2021/09/27 02:52:15;;;;;;;;;;;21.60;69.20;;;;;;5026659;28;19917;-66
2021/09/27 02:54:48;;;;;;;;;;;21.60;69.20;;;;;;5028295;28;19975;-66
2021/09/27 02:57:48;;;;;;;;;;;21.60;69.20;;;;;;5026543;28;19995;-66
2021/09/27 03:00:16;;;;;;;;;;;21.60;69.20;;;;;;4982272;28;19925;-66
2021/09/27 03:03:04;;;;;;;;;;;21.60;69.20;;;;;;5018713;28;19921;-66
2021/09/27 03:05:40;;;;;;;;;;;21.60;69.10;;;;;;5023929;28;20098;-66
2021/09/27 03:08:17;;;;;;;;;;;21.60;69.10;;;;;;5033246;28;20338;-66
2021/09/27 03:10:43;;;;;;;;;;;21.60;69.10;;;;;;5025949;28;19929;-66
2021/09/27 03:13:27;;;;;;;;;;;21.60;69.10;;;;;;5029455;28;19917;-66
2021/09/27 03:15:56;;;;;;;;;;;21.60;69.10;;;;;;5025948;28;19964;-65
2021/09/27 03:18:25;;;;;;;;;;;21.60;69.70;;;;;;5024024;28;19933;-66
2021/09/27 03:20:55;;;;;;;;;;;21.60;69.10;;;;;;5027887;28;20323;-66
2021/09/27 03:23:34;;;;;;;;;;;21.60;69.10;;;;;;5027925;28;19917;-65
2021/09/27 03:26:02;;;;;;;;;;;21.60;69.10;;;;;;5028003;28;20407;-66
2021/09/27 03:28:50;;;;;;;;;;;21.60;69.10;;;;;;5027986;28;20156;-66
2021/09/27 03:31:24;;;;;;;;;;;21.60;69.10;;;;;;5025009;28;19921;-67
2021/09/27 03:33:56;;;;;;;;;;;21.60;69.00;;;;;;5026559;28;20002;-66
2021/09/27 03:36:32;;;;;;;;;;;21.60;69.00;;;;;;5025247;28;19917;-65
2021/09/27 03:39:16;;;;;;;;;;;21.60;69.10;;;;;;5025701;28;19923;-65
2021/09/27 03:41:45;;;;;;;;;;;21.60;69.10;;;;;;5026415;28;19921;-67
2021/09/27 03:44:21;;;;;;;;;;;21.60;69.10;;;;;;5027539;28;20588;-66
2021/09/27 03:46:55;;;;;;;;;;;21.60;69.00;;;;;;5026074;28;19917;-67
2021/09/27 03:49:46;;;;;;;;;;;21.60;69.10;;;;;;5025699;28;20394;-66
2021/09/27 03:52:15;;;;;;;;;;;21.60;69.10;;;;;;4980537;28;20013;-63
2021/09/27 03:54:44;;;;;;;;;;;21.60;69.10;;;;;;5040732;28;19953;-64
2021/09/27 03:57:16;;;;;;;;;;;21.60;69.00;;;;;;5027306;28;20506;-65
2021/09/27 03:59:48;;;;;;;;;;;21.60;69.10;;;;;;5025337;28;19925;-64
2021/09/27 04:02:23;;;;;;;;;;;21.60;69.00;;;;;;5025363;28;20007;-64
2021/09/27 04:04:53;;;;;;;;;;;21.60;69.00;;;;;;5026472;28;20620;-64
2021/09/27 04:07:40;;;;;;;;;;;21.60;69.00;;;;;;5026346;28;19931;-64
2021/09/27 04:10:11;;;;;;;;;;;21.60;69.00;;;;;;5028824;28;20257;-64
2021/09/27 04:12:40;;;;;;;;;;;21.60;69.00;;;;;;5004847;28;19940;-62
2021/09/27 04:15:22;;;;;;;;;;;21.60;69.00;;;;;;5040311;28;20609;-63
2021/09/27 04:17:47;;;;;;;;;;;21.60;69.00;;;;;;5025695;28;20008;-63
2021/09/27 04:20:18;;;;;;;;;;;21.60;69.00;;;;;;5025337;28;20017;-63
2021/09/27 04:22:46;;;;;;;;;;;21.60;69.00;;;;;;5025128;28;19913;-62
2021/09/27 04:25:19;;;;;;;;;;;21.60;69.00;;;;;;5023443;28;19917;-61
2021/09/27 04:28:03;;;;;;;;;;;21.60;69.10;;;;;;5023064;28;19917;-60
2021/09/27 04:30:31;;;;;;;;;;;21.60;69.10;;;;;;5024364;28;20298;-60
2021/09/27 04:32:56;;;;;;;;;;;21.60;69.20;;;;;;5005571;28;19988;-62
2021/09/27 04:35:22;;;;;;;;;;;21.60;69.10;;;;;;5024687;28;19913;-63
2021/09/27 04:37:47;;;;;;;;;;;21.60;69.20;;;;;;5023614;28;19913;-63
2021/09/27 04:40:13;;;;;;;;;;;21.60;69.30;;;;;;5024554;28;20308;-63
2021/09/27 04:42:41;;;;;;;;;;;21.60;69.30;;;;;;5026112;28;20403;-64
2021/09/27 04:45:22;;;;;;;;;;;21.60;69.40;;;;;;5022448;28;19949;-63
2021/09/27 04:47:54;;;;;;;;;;;21.60;69.40;;;;;;5022379;28;19913;-60
2021/09/27 04:50:26;;;;;;;;;;;21.60;69.40;;;;;;5022981;28;19932;-65
2021/09/27 04:52:51;;;;;;;;;;;21.60;69.40;;;;;;5023068;28;19921;-64
2021/09/27 04:55:24;;;;;;;;;;;21.60;69.30;;;;;;5023974;28;19913;-64
2021/09/27 04:58:00;;;;;;;;;;;21.60;69.30;;;;;;5021586;28;19921;-64
2021/09/27 05:00:33;;;;;;;;;;;21.60;69.20;;;;;;5017813;28;20431;-63
2021/09/27 05:03:13;;;;;;;;;;;21.60;69.30;;;;;;5021419;28;20407;-64
2021/09/27 05:05:54;;;;;;;;;;;21.60;69.20;;;;;;5021920;28;19921;-64
2021/09/27 05:08:35;;;;;;;;;;;21.60;69.20;;;;;;5022959;28;20355;-64
2021/09/27 05:11:10;;;;;;;;;;;21.60;69.20;;;;;;5019155;28;19925;-64
2021/09/27 05:13:38;;;;;;;;;;;21.60;69.10;;;;;;5020467;28;20300;-65
2021/09/27 05:16:17;;;;;;;;;;;21.60;69.10;;;;;;5022610;28;20423;-64
2021/09/27 05:18:43;;;;;;;;;;;21.60;69.30;;;;;;5021354;28;19925;-65
2021/09/27 05:21:28;;;;;;;;;;;21.60;69.30;;;;;;5022263;28;19921;-65
2021/09/27 05:24:27;;;;;;;;;;;21.60;69.20;;;;;;5000927;28;20027;-64
2021/09/27 05:26:58;;;;;;;;;;;21.60;69.40;;;;;;4996274;28;19913;-64
2021/09/27 05:29:30;;;;;;;;;;;21.60;69.50;;;;;;5022575;28;19914;-64
2021/09/27 05:32:16;;;;;;;;;;;21.60;69.40;;;;;;5021982;28;20269;-65
2021/09/27 05:34:55;;;;;;;;;;;21.60;69.40;;;;;;5023764;28;19921;-64
2021/09/27 05:37:20;;;;;;;;;;;21.60;69.30;;;;;;5021481;28;20366;-65
2021/09/27 05:40:05;;;;;;;;;;;21.60;69.20;;;;;;5021445;28;20347;-65
2021/09/27 05:42:50;;;;;;;;;;;21.60;69.20;;;;;;5023526;28;19921;-65
2021/09/27 05:45:32;;;;;;;;;;;21.60;69.20;;;;;;5023388;28;19920;-61
2021/09/27 05:48:07;;;;;;;;;;;21.60;69.20;;;;;;5022109;28;19913;-63
2021/09/27 05:50:36;;;;;;;;;;;21.60;69.10;;;;;;5021672;28;19917;-62
2021/09/27 05:53:16;;;;;;;;;;;21.60;69.30;;;;;;5023779;28;19920;-62
2021/09/27 05:55:49;;;;;;;;;;;21.60;69.70;;;;;;5024017;28;20339;-64
2021/09/27 05:58:33;;;;;;;;;;;21.60;70.00;;;;;;5021879;28;20667;-63
2021/09/27 06:00:59;;;;;;;;;;;21.60;70.00;;;;;;5025834;28;19952;-63
2021/09/27 06:03:49;;;;;;;;;;;21.60;70.00;;;;;;5008010;28;19913;-63
2021/09/27 06:06:22;;;;;;;;;;;21.60;69.80;;;;;;5007166;28;19919;-63
2021/09/27 06:08:55;;;;;;;;;;;21.60;69.70;;;;;;5025312;28;19948;-62
2021/09/27 06:11:39;;;;;;;;;;;21.60;69.50;;;;;;5023231;28;19917;-64
2021/09/27 06:14:04;;;;;;;;;;;21.60;69.50;;;;;;5025745;28;19913;-63
2021/09/27 06:16:44;;;;;;;;;;;21.60;69.30;;;;;;5022929;28;19921;-64
2021/09/27 06:19:13;;;;;;;;;;;21.60;69.20;;;;;;5017142;28;19913;-62
2021/09/27 06:21:44;;;;;;;;;;;21.60;69.20;;;;;;5018298;28;19917;-62
2021/09/27 06:24:26;;;;;;;;;;;21.60;69.10;;;;;;5012216;28;19913;-64
2021/09/27 06:26:59;;;;;;;;;;;21.60;69.10;;;;;;5017884;28;19952;-64
2021/09/27 06:29:33;;;;;;;;;;;21.60;69.00;;;;;;5025335;28;19931;-63
2021/09/27 06:32:01;;;;;;;;;;;21.60;69.00;;;;;;5024993;28;20008;-62
2021/09/27 06:34:44;;;;;;;;;;;21.60;69.00;;;;;;5025829;28;19975;-62
2021/09/27 06:37:10;;;;;;;;;;;21.60;69.00;;;;;;5017492;28;20008;-64
2021/09/27 06:39:35;;;;;;;;;;;21.60;69.00;;;;;;5025550;28;19927;-63
2021/09/27 06:42:01;;;;;;;;;;;21.60;69.00;;;;;;5026586;28;19936;-63
2021/09/27 06:44:27;;;;;;;;;;;21.60;69.00;;;;;;5024450;28;20513;-62
2021/09/27 06:46:52;;;;;;;;;;;21.60;69.00;;;;;;5025319;28;19924;-63
2021/09/27 06:49:18;;;;;;;;;;;21.60;69.00;;;;;;5026132;28;20324;-63
2021/09/27 06:51:44;;;;;;;;;;;21.60;69.00;;;;;;5026115;28;19971;-63
2021/09/27 06:54:13;;;;;;;;;;;21.60;69.00;;;;;;5026381;28;19923;-62
2021/09/27 06:56:38;;;;;;;;;;;21.60;69.10;;;;;;5026265;28;19927;-63
2021/09/27 06:59:04;;;;;;;;;;;21.60;69.10;;;;;;5025752;28;20016;-62
2021/09/27 07:01:29;;;;;;;;;;;21.60;69.20;;;;;;5025919;28;19928;-63
2021/09/27 07:03:55;;;;;;;;;;;21.60;69.20;;;;;;5024789;28;19920;-64
2021/09/27 07:06:20;;;;;;;;;;;21.60;69.20;;;;;;5024362;28;19996;-62
2021/09/27 07:08:46;;;;;;;;;;;21.60;69.30;;;;;;5025434;28;19920;-63
2021/09/27 07:11:12;;;;;;;;;;;21.60;69.30;;;;;;5026294;28;19917;-61
2021/09/27 07:13:37;;;;;;;;;;;21.60;69.30;;;;;;5021162;28;19920;-64
2021/09/27 07:16:03;;;;;;;;;;;21.60;69.30;;;;;;5025689;28;20408;-63
2021/09/27 07:18:28;;;;;;;;;;;21.60;69.30;;;;;;5025042;28;20074;-65
2021/09/27 07:20:58;;;;;;;;;;;21.60;69.20;;;;;;5026046;28;19913;-64
2021/09/27 07:23:23;;;;;;;;;;;21.60;69.20;;;;;;5026421;28;19920;-63
2021/09/27 07:25:49;;;;;;;;;;;21.60;69.20;;;;;;5025514;28;19913;-64
2021/09/27 07:28:14;;;;;;;;;;;21.60;69.40;;;;;;5023958;28;20586;-63
2021/09/27 07:30:40;;;;;;;;;;;21.60;69.40;;;;;;5026720;28;19964;-64
2021/09/27 07:33:05;;;;;;;;;;;21.60;69.40;;;;;;5025795;28;19921;-62
2021/09/27 07:35:31;;;;;;;;;;;21.60;69.50;;;;;;5025804;28;19968;-62
2021/09/27 07:37:56;;;;;;;;;;;21.60;69.60;;;;;;5025674;28;19914;-63
2021/09/27 07:40:22;;;;;;;;;;;21.60;69.70;;;;;;5023570;28;20021;-63
2021/09/27 07:42:48;;;;;;;;;;;21.60;69.80;;;;;;5024989;28;19913;-63
2021/09/27 07:45:14;;;;;;;;;;;21.60;70.00;;;;;;5025350;28;19921;-62
2021/09/27 07:47:40;;;;;;;;;;;21.60;70.10;;;;;;5023591;28;19924;-63
2021/09/27 07:50:05;;;;;;;;;;;21.60;70.10;;;;;;5024758;28;19917;-63
2021/09/27 07:52:31;;;;;;;;;;;21.60;70.10;;;;;;5023115;28;19974;-63
2021/09/27 07:54:56;;;;;;;;;;;21.60;70.20;;;;;;5024393;28;20391;-63
2021/09/27 07:57:22;;;;;;;;;;;21.60;70.20;;;;;;5024699;28;20276;-64
2021/09/27 07:59:50;;;;;;;;;;;21.60;70.20;;;;;;5025735;28;19948;-64
2021/09/27 08:02:18;;;;;;;;;;;21.60;70.20;;;;;;5024627;28;19913;-63
2021/09/27 08:04:44;;;;;;;;;;;21.60;70.20;;;;;;5024629;28;19913;-63
2021/09/27 08:07:09;;;;;;;;;;;21.60;70.10;;;;;;5024498;28;20027;-64
2021/09/27 08:09:35;;;;;;;;;;;21.60;70.10;;;;;;5023995;28;19913;-62
2021/09/27 08:12:00;;;;;;;;;;;21.60;70.10;;;;;;5024162;28;19989;-62
2021/09/27 08:14:26;;;;;;;;;;;21.60;70.10;;;;;;5024972;28;20604;-63
2021/09/27 08:16:51;;;;;;;;;;;21.60;70.10;;;;;;5023649;28;19970;-63
2021/09/27 08:19:22;;;;;;;;;;;21.60;70.10;;;;;;5025271;28;19949;-63
2021/09/27 08:21:47;;;;;;;;;;;21.60;70.10;;;;;;5025209;28;19920;-63
2021/09/27 08:24:12;;;;;;;;;;;21.60;70.10;;;;;;5024803;28;19913;-63
2021/09/27 08:26:38;;;;;;;;;;;21.60;70.70;;;;;;5023828;28;19913;-62
2021/09/27 08:29:04;;;;;;;;;;;21.60;70.10;;;;;;5024349;28;20459;-63
2021/09/27 08:31:29;;;;;;;;;;;21.60;70.10;;;;;;5023906;28;19956;-63
2021/09/27 08:33:55;;;;;;;;;;;21.60;70.00;;;;;;5025320;28;19916;-64
2021/09/27 08:36:20;;;;;;;;;;;21.60;70.10;;;;;;5025392;28;20319;-64
2021/09/27 08:38:46;;;;;;;;;;;21.60;70.00;;;;;;5026465;28;19913;-63
2021/09/27 08:41:17;;;;;;;;;;;21.60;70.00;;;;;;5027015;28;19944;-63
2021/09/27 08:43:46;;;;;;;;;;;21.60;70.00;;;;;;5028919;28;19917;-63
2021/09/27 08:46:12;;;;;;;;;;;21.60;70.00;;;;;;5036965;28;19943;-63
2021/09/27 08:48:40;;;;;;;;;;;21.60;70.00;;;;;;5009417;28;19913;-63
2021/09/27 08:51:05;;;;;;;;;;;21.60;69.90;;;;;;5022709;28;19925;-63
2021/09/27 08:53:35;;;;;;;;;;;21.60;69.90;;;;;;5023258;28;19914;-61
2021/09/27 08:56:02;;;;;;;;;;;21.60;69.90;;;;;;5023962;28;20265;-63
2021/09/27 08:58:36;;;;;;;;;;;21.60;69.90;;;;;;5021969;28;19995;-64
2021/09/27 09:01:06;;;;;;;;;;;21.60;69.90;;;;;;5023334;28;19995;-60
2021/09/27 09:03:50;;;;;;;;;;;21.60;70.00;;;;;;5005387;28;20761;-64
2021/09/27 09:06:35;;;;;;;;;;;21.60;69.90;;;;;;5017126;28;19917;-62
2021/09/27 09:09:16;;;;;;;;;;;21.60;70.00;;;;;;5023966;28;19920;-64
2021/09/27 09:12:02;;;;;;;;;;;21.60;69.90;;;;;;5024171;28;19928;-63
2021/09/27 09:14:30;;;;;;;;;;;21.60;69.90;;;;;;5022068;28;19979;-64
2021/09/27 09:16:56;;;;;;;;;;;21.60;69.80;;;;;;5023782;28;19925;-63
2021/09/27 09:19:24;;;;;;;;;;;21.60;69.80;;;;;;5023430;28;19974;-63
2021/09/27 09:21:51;;;;;;;;;;;21.60;69.80;;;;;;5024307;28;19920;-64
2021/09/27 09:24:18;;;;;;;;;;;21.60;69.90;;;;;;5022391;28;19935;-64
2021/09/27 09:26:45;;;;;;;;;;;21.60;69.90;;;;;;5022174;28;19960;-63
2021/09/27 09:29:10;;;;;;;;;;;21.60;69.80;;;;;;5023275;28;19921;-64
2021/09/27 09:31:39;;;;;;;;;;;21.60;69.80;;;;;;5023715;28;20039;-63
2021/09/27 09:34:27;;;;;;;;;;;21.60;70.50;;;;;;5023711;28;19921;-64
2021/09/27 09:36:53;;;;;;;;;;;21.60;69.90;;;;;;5016492;28;19913;-64
2021/09/27 09:39:20;;;;;;;;;;;21.60;69.80;;;;;;5024199;28;20367;-62
2021/09/27 09:41:47;;;;;;;;;;;21.60;69.80;;;;;;5023605;28;20190;-61
2021/09/27 09:44:19;;;;;;;;;;;21.60;69.80;;;;;;5023976;28;19966;-62
2021/09/27 09:46:44;;;;;;;;;;;21.60;69.90;;;;;;5023773;28;19921;-61
2021/09/27 09:49:10;;;;;;;;;;;21.60;69.80;;;;;;5023514;28;20072;-63
2021/09/27 09:51:36;;;;;;;;;;;21.60;69.80;;;;;;5024846;28;20402;-63
2021/09/27 09:54:03;;;;;;;;;;;21.60;69.80;;;;;;5027856;28;20000;-63
2021/09/27 09:56:30;;;;;;;;;;;21.60;69.80;;;;;;5026363;28;19913;-63
2021/09/27 09:58:55;;;;;;;;;;;21.60;69.80;;;;;;5027847;28;19913;-63
2021/09/27 10:01:30;;;;;;;;;;;21.60;69.80;;;;;;5027559;28;19913;-63
2021/09/27 10:04:05;;;;;;;;;;;21.60;69.80;;;;;;5027823;28;19936;-64
2021/09/27 10:06:44;;;;;;;;;;;21.60;70.50;;;;;;5025946;28;20299;-63
2021/09/27 10:09:14;;;;;;;;;;;21.60;69.90;;;;;;5027043;28;20350;-63
2021/09/27 10:11:40;;;;;;;;;;;21.60;69.90;;;;;;5027075;28;19917;-64
2021/09/27 10:14:16;;;;;;;;;;;21.60;69.90;;;;;;5027220;28;19913;-64
2021/09/27 10:16:46;;;;;;;;;;;21.60;69.90;;;;;;5026958;28;20172;-61
2021/09/27 10:19:14;;;;;;;;;;;21.60;69.90;;;;;;5026075;28;19921;-64
2021/09/27 10:21:39;;;;;;;;;;;21.60;70.00;;;;;;5026446;28;19937;-65
2021/09/27 10:24:18;;;;;;;;;;;21.60;69.90;;;;;;5024917;28;19913;-63
2021/09/27 10:26:48;;;;;;;;;;;21.60;69.90;;;;;;5025104;28;19913;-63
2021/09/27 10:29:14;;;;;;;;;;;21.60;69.90;;;;;;5025597;28;19920;-61
2021/09/27 10:31:41;;;;;;;;;;;21.60;70.00;;;;;;5025914;28;19924;-64
2021/09/27 10:34:09;;;;;;;;;;;21.60;70.00;;;;;;5025200;28;19917;-63
2021/09/27 10:36:35;;;;;;;;;;;21.60;70.00;;;;;;5024911;28;20457;-64
2021/09/27 10:39:02;;;;;;;;;;;21.60;70.00;;;;;;5025439;28;20431;-63
2021/09/27 10:41:28;;;;;;;;;;;21.60;70.10;;;;;;5026636;28;19960;-63
2021/09/27 10:43:55;;;;;;;;;;;21.60;70.00;;;;;;5024885;28;19913;-65
2021/09/27 10:46:21;;;;;;;;;;;21.60;70.00;;;;;;5025439;28;19974;-63
2021/09/27 10:48:48;;;;;;;;;;;21.60;70.00;;;;;;5024920;28;19921;-63
2021/09/27 10:51:14;;;;;;;;;;;21.60;70.00;;;;;;5026095;28;20032;-64
2021/09/27 10:53:51;;;;;;;;;;;21.60;70.00;;;;;;5025255;28;20043;-63
2021/09/27 10:56:36;;;;;;;;;;;21.60;69.90;;;;;;5013414;28;19913;-63
2021/09/27 10:59:03;;;;;;;;;;;21.60;69.90;;;;;;5023248;28;19953;-63
2021/09/27 11:01:38;;;;;;;;;;;21.60;69.90;;;;;;5026243;28;19917;-63
2021/09/27 11:04:17;;;;;;;;;;;21.60;70.00;;;;;;5025906;28;19913;-64
2021/09/27 11:06:44;;;;;;;;;;;21.60;69.90;;;;;;5041222;28;19914;-62
2021/09/27 11:09:30;;;;;;;;;;;21.60;69.90;;;;;;5026257;28;20012;-63
2021/09/27 11:11:58;;;;;;;;;;;21.60;70.60;;;;;;5005120;28;19921;-64
2021/09/27 11:14:37;;;;;;;;;;;21.60;70.00;;;;;;5022657;28;19917;-64
2021/09/27 11:17:05;;;;;;;;;;;21.60;69.90;;;;;;5022164;28;19921;-64
2021/09/27 11:19:34;;;;;;;;;;;21.60;70.00;;;;;;5023207;28;20540;-62
2021/09/27 11:22:18;;;;;;;;;;;21.60;70.00;;;;;;5024541;28;19996;-63
2021/09/27 11:24:43;;;;;;;;;;;21.60;70.00;;;;;;5025918;28;19913;-63
2021/09/27 11:27:18;;;;;;;;;;;21.60;70.00;;;;;;5025486;28;19935;-63
2021/09/27 11:29:51;;;;;;;;;;;21.60;70.00;;;;;;5025508;28;20319;-63
2021/09/27 11:32:25;;;;;;;;;;;21.60;70.00;;;;;;5025639;28;19921;-63
2021/09/27 11:35:02;;;;;;;;;;;21.60;70.00;;;;;;5026321;28;19945;-62
2021/09/27 11:37:29;;;;;;;;;;;21.60;70.00;;;;;;5025560;28;19913;-62
2021/09/27 11:40:01;;;;;;;;;;;21.60;70.00;;;;;;5025451;28;20302;-63
2021/09/27 11:42:42;;;;;;;;;;;21.60;70.00;;;;;;5024698;28;19914;-63
2021/09/27 11:45:24;;;;;;;;;;;21.60;70.00;;;;;;5022466;28;19913;-63
2021/09/27 11:47:57;;;;;;;;;;;21.60;70.10;;;;;;5025889;28;19917;-63
2021/09/27 11:50:29;;;;;;;;;;;21.60;70.10;;;;;;5021823;28;19917;-63
2021/09/27 11:53:06;;;;;;;;;;;21.60;70.00;;;;;;5025091;28;20296;-64
2021/09/27 11:55:34;;;;;;;;;;;21.60;70.00;;;;;;5025683;28;19917;-63
2021/09/27 11:58:02;;;;;;;;;;;21.60;70.10;;;;;;5025334;28;19920;-63
2021/09/27 12:00:29;;;;;;;;;;;21.60;70.00;;;;;;5023833;28;19913;-63
2021/09/27 12:03:06;;;;;;;;;;;21.60;70.10;;;;;;5024328;28;19913;-63
2021/09/27 12:05:37;;;;;;;;;;;21.60;70.10;;;;;;5024596;28;19913;-63
2021/09/27 12:08:04;;;;;;;;;;;21.60;70.10;;;;;;5023919;28;19913;-63
2021/09/27 12:10:40;;;;;;;;;;;21.60;70.10;;;;;;5025220;28;20415;-63
2021/09/27 12:13:16;;;;;;;;;;;21.60;70.10;;;;;;5025188;28;19917;-64
2021/09/27 12:15:41;;;;;;;;;;;21.60;70.10;;;;;;5023088;28;19920;-63
2021/09/27 12:18:07;;;;;;;;;;;21.60;70.10;;;;;;5023050;28;19917;-63
2021/09/27 12:20:39;;;;;;;;;;;21.70;70.30;;;;;;5023230;28;19913;-63
2021/09/27 12:23:07;;;;;;;;;;;21.60;70.10;;;;;;5024893;28;19920;-63
2021/09/27 12:25:34;;;;;;;;;;;21.60;70.10;;;;;;5024657;28;19913;-62
2021/09/27 12:28:01;;;;;;;;;;;21.60;70.10;;;;;;5024241;28;20200;-62
2021/09/27 12:30:28;;;;;;;;;;;21.60;70.10;;;;;;5024288;28;19931;-63
2021/09/27 12:32:55;;;;;;;;;;;21.70;70.10;;;;;;5024928;28;19921;-63
2021/09/27 12:35:31;;;;;;;;;;;21.70;70.20;;;;;;5024772;28;19921;-64
2021/09/27 12:37:57;;;;;;;;;;;21.60;70.10;;;;;;5024777;28;19913;-64
2021/09/27 12:40:27;;;;;;;;;;;21.70;70.20;;;;;;5022880;28;20487;-64
2021/09/27 12:42:54;;;;;;;;;;;21.70;70.10;;;;;;5023123;28;20203;-62
2021/09/27 12:45:21;;;;;;;;;;;21.70;70.10;;;;;;5024365;28;19921;-63
2021/09/27 12:47:46;;;;;;;;;;;21.70;70.20;;;;;;5023296;28;19928;-63
2021/09/27 12:50:12;;;;;;;;;;;21.70;70.10;;;;;;5022563;28;19917;-62
2021/09/27 12:52:46;;;;;;;;;;;21.70;70.10;;;;;;5023010;28;20010;-64
2021/09/27 12:55:12;;;;;;;;;;;21.70;70.10;;;;;;5022938;28;19913;-63
2021/09/27 12:57:44;;;;;;;;;;;21.60;70.00;;;;;;5024179;28;19967;-64
2021/09/27 13:00:30;;;;;;;;;;;21.60;70.10;;;;;;5022450;28;19996;-62
2021/09/27 13:02:55;;;;;;;;;;;21.70;70.10;;;;;;5024118;28;19917;-64
2021/09/27 13:05:23;;;;;;;;;;;21.60;70.10;;;;;;5022764;28;19913;-63
2021/09/27 13:07:55;;;;;;;;;;;21.70;70.10;;;;;;5024603;28;25863;-63
2021/09/27 13:10:21;;;;;;;;;;;21.70;70.10;;;;;;5020380;28;19936;-63
2021/09/27 13:13:00;;;;;;;;;;;21.70;70.10;;;;;;5024870;28;20376;-61
2021/09/27 13:15:28;;;;;;;;;;;21.70;70.00;;;;;;5026838;28;19959;-63
2021/09/27 13:17:58;;;;;;;;;;;21.70;70.10;;;;;;5021364;28;20031;-63
2021/09/27 13:20:31;;;;;;;;;;;21.70;70.10;;;;;;5022469;28;20443;-61
2021/09/27 13:22:57;;;;;;;;;;;21.70;70.00;;;;;;5018545;28;19967;-61
2021/09/27 13:25:28;;;;;;;;;;;21.60;70.60;;;;;;5022394;28;19917;-63
2021/09/27 13:27:54;;;;;;;;;;;21.70;70.10;;;;;;5020675;28;19913;-63
2021/09/27 13:30:22;;;;;;;;;;;21.60;70.00;;;;;;5022446;28;20394;-63
2021/09/27 13:32:54;;;;;;;;;;;21.60;70.00;;;;;;5023231;28;19925;-62
2021/09/27 13:35:21;;;;;;;;;;;21.60;70.00;;;;;;5023753;28;19914;-60
2021/09/27 13:37:50;;;;;;;;;;;21.70;70.10;;;;;;5023596;28;20331;-63
2021/09/27 13:40:23;;;;;;;;;;;21.70;70.10;;;;;;5015419;28;19928;-63
2021/09/27 13:42:51;;;;;;;;;;;21.70;70.10;;;;;;5021682;28;19919;-63
2021/09/27 13:45:28;;;;;;;;;;;21.70;70.10;;;;;;5023403;28;19917;-63
2021/09/27 13:47:53;;;;;;;;;;;21.70;70.10;;;;;;5021892;28;19914;-63
2021/09/27 13:50:19;;;;;;;;;;;21.70;70.10;;;;;;5022944;28;19922;-63
2021/09/27 13:52:47;;;;;;;;;;;21.70;70.00;;;;;;5023096;28;19913;-63
2021/09/27 13:55:13;;;;;;;;;;;21.70;70.10;;;;;;5021519;28;19949;-63
2021/09/27 13:57:38;;;;;;;;;;;21.70;70.00;;;;;;5021577;28;19920;-63
2021/09/27 14:00:04;;;;;;;;;;;21.70;70.10;;;;;;5022409;28;19944;-63
2021/09/27 14:02:30;;;;;;;;;;;21.70;70.10;;;;;;5023245;28;19921;-63
2021/09/27 14:04:55;;;;;;;;;;;21.70;70.00;;;;;;5023285;28;19913;-63
2021/09/27 14:07:21;;;;;;;;;;;21.70;70.00;;;;;;5023022;28;19913;-63
2021/09/27 14:09:50;;;;;;;;;;;21.70;70.00;;;;;;5021208;28;20004;-63
2021/09/27 14:12:16;;;;;;;;;;;21.70;70.00;;;;;;5037367;28;19925;-63
2021/09/27 14:14:41;;;;;;;;;;;21.70;70.00;;;;;;5023220;28;19913;-62
2021/09/27 14:17:07;;;;;;;;;;;21.70;70.00;;;;;;5022905;28;19928;-63
2021/09/27 14:19:32;;;;;;;;;;;21.70;70.00;;;;;;5023206;28;20003;-61
2021/09/27 14:22:00;;;;;;;;;;;21.70;69.90;;;;;;5023654;28;20544;-63
2021/09/27 14:24:26;;;;;;;;;;;21.70;69.90;;;;;;5023091;28;19913;-64
2021/09/27 14:26:51;;;;;;;;;;;21.70;69.90;;;;;;5021067;28;19920;-63
2021/09/27 14:29:17;;;;;;;;;;;21.70;70.00;;;;;;5022231;28;19921;-63
2021/09/27 14:31:42;;;;;;;;;;;21.70;69.90;;;;;;5023049;28;19917;-63
2021/09/27 14:34:07;;;;;;;;;;;21.70;70.00;;;;;;5022804;28;19913;-63